»·PEaware :: PRT87 KBUR-KSLC

PRT87 :: KBUR-KSLC

FLIGHT INFORMATION

Flight Status: Arrived
Operator: Unknown
More flights by this operator :: More flights under this callsign
Pilot: Zach S. (18794)
Aircraft: Unknown
(GLF6)
More flights by this aircraft type
Origin: KBUR Bob Hope-Burbank
United States
Destination: KSLC Salt Lake City Intl
United States
More flights between these airports :: More routes between these airports
Route: +SLAPP1 LAS MLF QWENN5
File this flight plan on PilotEdge
Remarks: / L
Altitude:
(Current/Filed)
41,000ft
Speed:
(Current/Filed)
0kts
Departed: 15-May-18 02:14 PM
Arrived: 15-May-18 03:25 PM
Distance/Time
Traveled:
499nm/1:11
Distance/Time
To Go:
Arrived

Flight Plot

Page will automatically refresh every two minutes.

Flight plan parsing failed; only flown route is shown


Map Options




Map Legend


Flown Route
Filed Route
Departure Airport
Arrival Airport
Navaid (VOR, NDB)
Fix

Horizontal Profiles

Position Reports

Time Latitude Longitude Heading Altitude Ground
Speed
15-May-18 13:38 34.200203 -118.358746 263 788ft 0kts
15-May-18 13:39 34.200203 -118.358746 263 788ft 0kts
15-May-18 13:40 34.200203 -118.358746 263 788ft 0kts
15-May-18 13:41 34.200203 -118.358746 263 788ft 0kts
15-May-18 13:42 34.200203 -118.358746 263 788ft 0kts
15-May-18 13:43 34.200203 -118.358746 263 788ft 0kts
15-May-18 13:44 34.200203 -118.358746 263 788ft 0kts
15-May-18 13:45 34.200203 -118.358746 263 788ft 0kts
15-May-18 13:46 34.200203 -118.358746 263 788ft 0kts
15-May-18 13:47 34.200203 -118.358746 263 788ft 0kts
15-May-18 13:48 34.200203 -118.358746 263 788ft 0kts
15-May-18 13:49 34.200203 -118.358746 263 788ft 0kts
15-May-18 13:50 34.200203 -118.358746 263 788ft 0kts
15-May-18 13:51 34.200203 -118.358746 263 788ft 0kts
15-May-18 13:52 34.200203 -118.358746 263 788ft 0kts
15-May-18 13:53 34.200203 -118.358746 263 788ft 0kts
15-May-18 13:54 34.200203 -118.358746 263 788ft 0kts
15-May-18 13:55 34.200203 -118.358746 263 788ft 0kts
15-May-18 13:56 34.200203 -118.358746 263 788ft 0kts
15-May-18 13:57 34.200203 -118.358746 263 788ft 0kts
15-May-18 13:58 34.200203 -118.358746 263 788ft 0kts
15-May-18 13:59 34.200203 -118.358746 263 788ft 0kts
15-May-18 14:00 34.200203 -118.358746 263 788ft 0kts
15-May-18 14:01 34.200203 -118.358746 263 788ft 0kts
15-May-18 14:02 34.200203 -118.358746 263 788ft 0kts
15-May-18 14:03 34.200203 -118.358746 263 788ft 0kts
15-May-18 14:04 34.200203 -118.358746 263 788ft 0kts
15-May-18 14:05 34.200203 -118.358746 263 788ft 0kts
15-May-18 14:06 34.200203 -118.358746 263 788ft 0kts
15-May-18 14:07 34.200203 -118.358746 263 788ft 0kts
15-May-18 14:08 34.200195 -118.358832 263 788ft 8kts
15-May-18 14:09 34.199599 -118.359075 96 788ft 3kts
15-May-18 14:10 34.202890 -118.359017 346 788ft 32kts
15-May-18 14:11 34.209640 -118.360878 347 788ft 23kts
15-May-18 14:12 34.211695 -118.361272 17 788ft 0kts
15-May-18 14:13 34.211698 -118.361271 18 788ft 1kts
15-May-18 14:14 34.185748 -118.356332 203 1481ft 174kts
15-May-18 14:15 34.191514 -118.399367 355 3922ft 201kts
15-May-18 14:16 34.258341 -118.403405 356 6666ft 308kts
15-May-18 14:17 34.345932 -118.405952 12 9386ft 334kts
15-May-18 14:18 34.433424 -118.362482 22 12235ft 344kts
15-May-18 14:19 34.520404 -118.306042 42 14011ft 367kts
15-May-18 14:20 34.595702 -118.220411 38 16443ft 385kts
15-May-18 14:21 34.686193 -118.127445 38 19528ft 451kts
15-May-18 14:22 34.762498 -118.006867 84 22499ft 488kts
15-May-18 14:23 34.770454 -117.842952 91 23039ft 485kts
15-May-18 14:24 34.770471 -117.677976 94 25114ft 501kts
15-May-18 14:25 34.766191 -117.498656 93 28609ft 553kts
15-May-18 14:26 34.792036 -117.308354 77 32052ft 590kts
15-May-18 14:27 34.833137 -117.108664 77 35481ft 623kts
15-May-18 14:28 34.873615 -116.908242 77 38832ft 601kts
15-May-18 14:29 34.931708 -116.717059 45 41019ft 612kts
15-May-18 14:30 35.046180 -116.569344 43 41027ft 581kts
15-May-18 14:31 35.157419 -116.428517 42 41046ft 584kts
15-May-18 14:32 35.269474 -116.286618 43 41042ft 582kts
15-May-18 14:33 35.381567 -116.144661 43 41043ft 582kts
15-May-18 14:34 35.493823 -116.002253 43 41045ft 582kts
15-May-18 14:35 35.605894 -115.859606 44 41044ft 581kts
15-May-18 14:36 35.716165 -115.714026 44 41024ft 586kts
15-May-18 14:37 35.825764 -115.568232 44 41025ft 585kts
15-May-18 14:38 35.936148 -115.421087 43 41014ft 585kts
15-May-18 14:39 36.045773 -115.274940 44 41002ft 585kts
15-May-18 14:40 36.162749 -115.140221 37 40979ft 581kts
15-May-18 14:41 36.287612 -115.015660 35 40983ft 578kts
15-May-18 14:42 36.412844 -114.890942 35 40982ft 577kts
15-May-18 14:43 36.537520 -114.766711 34 40984ft 578kts
15-May-18 14:44 36.662363 -114.642142 34 40986ft 577kts
15-May-18 14:45 36.787407 -114.517241 34 40988ft 577kts
15-May-18 14:46 36.912428 -114.392205 34 41003ft 577kts
15-May-18 14:47 37.037674 -114.269505 34 41021ft 574kts
15-May-18 14:48 37.164370 -114.150178 33 41024ft 570kts
15-May-18 14:49 37.291010 -114.031552 33 41025ft 570kts
15-May-18 14:50 37.418165 -113.912288 33 41027ft 571kts
15-May-18 14:51 37.544872 -113.793311 33 41029ft 570kts
15-May-18 14:52 37.671862 -113.673928 33 41084ft 570kts
15-May-18 14:53 37.798771 -113.554470 33 41132ft 571kts
15-May-18 14:54 37.925792 -113.434799 33 41134ft 571kts
15-May-18 14:55 38.052486 -113.315352 33 41129ft 571kts
15-May-18 14:56 38.178761 -113.196264 34 41095ft 571kts
15-May-18 14:57 38.306244 -113.075881 33 41080ft 571kts
15-May-18 14:58 38.438235 -112.969367 27 39458ft 545kts
15-May-18 14:59 38.562782 -112.895348 15 36608ft 467kts
15-May-18 15:00 38.681507 -112.839691 15 33829ft 485kts
15-May-18 15:01 38.806852 -112.782867 15 31076ft 471kts
15-May-18 15:02 38.927912 -112.729289 15 28289ft 455kts
15-May-18 15:03 39.045443 -112.678409 16 25493ft 439kts
15-May-18 15:04 39.157379 -112.627429 25 24098ft 429kts
15-May-18 15:05 39.246766 -112.571295 24 24100ft 430kts
15-May-18 15:06 39.352743 -112.504860 24 22025ft 415kts
15-May-18 15:07 39.454210 -112.441756 26 19221ft 396kts
15-May-18 15:08 39.563258 -112.363798 28 15962ft 375kts
15-May-18 15:09 39.654653 -112.305240 25 15101ft 369kts
15-May-18 15:10 39.747777 -112.248712 25 15102ft 369kts
15-May-18 15:11 39.840629 -112.192284 24 15105ft 369kts
15-May-18 15:12 39.933333 -112.135877 24 15108ft 369kts
15-May-18 15:13 40.026992 -112.082081 22 15111ft 369kts
15-May-18 15:14 40.120258 -112.030075 22 15108ft 369kts
15-May-18 15:15 40.198316 -111.986553 22 13662ft 361kts
15-May-18 15:16 40.287792 -111.944703 12 11124ft 314kts
15-May-18 15:17 40.369217 -111.930218 5 11101ft 273kts
15-May-18 15:18 40.444460 -111.934882 352 10901ft 272kts
15-May-18 15:19 40.510562 -111.942584 352 9617ft 206kts
15-May-18 15:20 40.566591 -111.949069 352 8465ft 200kts
15-May-18 15:21 40.621493 -111.955223 354 7459ft 201kts
15-May-18 15:22 40.677648 -111.958295 353 6479ft 201kts
15-May-18 15:23 40.731639 -111.962024 354 5050ft 179kts
15-May-18 15:24 40.779383 -111.961987 356 4244ft 158kts
15-May-18 15:25 40.796204 -111.962094 1 4238ft 20kts
15-May-18 15:26 40.797786 -111.959989 161 4238ft 4kts
15-May-18 15:27 40.793435 -111.960102 180 4238ft 24kts
15-May-18 15:28 40.787069 -111.960025 180 4238ft 26kts

Navigation Log

Ident Type
Flight plan parsing failed, navigation log unavailable